Time,TemperatureF,DewpointF,PressureIn,WindDirection,WindDirectionDegrees,WindSpeedMPH,WindSpeedGustMPH,Humidity,HourlyPrecipIn,Conditions,Clouds,dailyrainin,SoftwareType,DateUTC
2013-09-10 00:00:00,78.8,72.7,29.97,ENE,71,0.0,3.6,82,0.00,,---,0.00,VWS V13.01,2013-09-10 05:00:00,
2013-09-10 00:10:00,78.6,72.8,29.97,ENE,71,0.0,4.0,82,0.00,,---,0.00,VWS V13.01,2013-09-10 05:10:00,
2013-09-10 00:20:00,78.4,72.9,29.97,ENE,59,0.0,0.0,83,0.00,,---,0.00,VWS V13.01,2013-09-10 05:20:00,
2013-09-10 00:30:00,78.4,72.9,29.97,ENE,59,0.0,0.0,83,0.00,,---,0.00,VWS V13.01,2013-09-10 05:30:00,
2013-09-10 00:40:00,78.3,73.0,30.00,ENE,59,0.0,0.0,84,0.00,,---,0.00,VWS V13.01,2013-09-10 05:40:00,
2013-09-10 00:50:00,78.1,72.9,30.00,ENE,59,0.0,0.0,84,0.00,,---,0.00,VWS V13.01,2013-09-10 05:50:00,
2013-09-10 01:00:00,78.1,73.1,30.00,ENE,59,0.0,0.0,85,0.00,,---,0.00,VWS V13.01,2013-09-10 06:00:00,
2013-09-10 01:10:00,77.9,73.0,30.00,ENE,59,0.0,0.0,85,0.00,,---,0.00,VWS V13.01,2013-09-10 06:10:00,
2013-09-10 01:20:00,77.7,73.1,30.00,ENE,59,0.0,0.0,86,0.00,,---,0.00,VWS V13.01,2013-09-10 06:20:00,
2013-09-10 01:30:00,77.5,73.2,30.00,ENE,59,0.0,0.0,86,0.00,,---,0.00,VWS V13.01,2013-09-10 06:30:00,
2013-09-10 01:40:00,77.5,73.2,30.00,ENE,59,0.0,0.0,86,0.00,,---,0.00,VWS V13.01,2013-09-10 06:40:00,
2013-09-10 01:50:00,77.4,73.3,30.00,ENE,59,0.0,0.0,87,0.00,,---,0.00,VWS V13.01,2013-09-10 06:50:00,
2013-09-10 02:00:00,77.2,73.1,30.00,ENE,59,0.0,0.0,87,0.00,,---,0.00,VWS V13.01,2013-09-10 07:00:00,
2013-09-10 02:10:00,77.0,73.2,30.00,ENE,59,0.0,0.0,88,0.00,,---,0.00,VWS V13.01,2013-09-10 07:10:00,
2013-09-10 02:20:00,77.0,73.4,30.00,ENE,59,0.0,0.0,89,0.00,,---,0.00,VWS V13.01,2013-09-10 07:20:00,
2013-09-10 02:30:00,76.8,73.5,30.00,ENE,59,0.0,0.0,90,0.00,,---,0.00,VWS V13.01,2013-09-10 07:30:00,
2013-09-10 02:40:00,76.6,73.4,30.00,ENE,59,0.0,0.0,90,0.00,,---,0.00,VWS V13.01,2013-09-10 07:40:00,
2013-09-10 02:50:00,76.6,73.6,30.00,ENE,59,0.0,0.0,90,0.00,,---,0.00,VWS V13.01,2013-09-10 07:50:00,
2013-09-10 03:00:00,76.6,73.6,30.00,ENE,59,0.0,0.0,90,0.00,,---,0.00,VWS V13.01,2013-09-10 08:00:00,
2013-09-10 03:10:00,76.8,74.1,30.00,ENE,59,0.0,0.0,91,0.00,,---,0.00,VWS V13.01,2013-09-10 08:10:00,
2013-09-10 03:20:00,76.6,73.9,30.00,ENE,59,0.0,0.0,91,0.00,,---,0.00,VWS V13.01,2013-09-10 08:20:00,
2013-09-10 03:30:00,76.6,73.9,30.00,ENE,59,0.0,0.0,91,0.00,,---,0.00,VWS V13.01,2013-09-10 08:30:00,
2013-09-10 03:40:00,76.5,74.0,30.00,ENE,59,0.0,0.0,92,0.00,,---,0.00,VWS V13.01,2013-09-10 08:40:00,
2013-09-10 03:50:00,76.5,74.0,30.00,ENE,59,0.0,0.0,92,0.00,,---,0.00,VWS V13.01,2013-09-10 08:50:00,
2013-09-10 04:00:00,76.3,73.8,30.00,ENE,59,0.0,0.0,92,0.00,,---,0.00,VWS V13.01,2013-09-10 09:00:00,
2013-09-10 04:10:00,76.3,73.8,30.00,ENE,59,0.0,0.0,92,0.00,,---,0.00,VWS V13.01,2013-09-10 09:10:00,
2013-09-10 04:20:00,76.5,74.2,30.00,ENE,59,0.0,0.0,93,0.00,,---,0.00,VWS V13.01,2013-09-10 09:20:00,
2013-09-10 04:30:00,76.3,74.1,30.00,ENE,59,0.0,0.0,93,0.00,,---,0.00,VWS V13.01,2013-09-10 09:30:00,
2013-09-10 04:40:00,76.5,74.5,30.00,ENE,59,0.0,0.0,94,0.00,,---,0.00,VWS V13.01,2013-09-10 09:40:00,
2013-09-10 04:50:00,76.5,74.5,30.00,ENE,59,0.0,0.0,94,0.00,,---,0.00,VWS V13.01,2013-09-10 09:50:00,
2013-09-10 05:00:00,76.5,74.7,30.00,ENE,59,0.0,0.0,94,0.00,,---,0.00,VWS V13.01,2013-09-10 10:00:00,
2013-09-10 05:10:00,76.5,74.7,30.00,ENE,59,0.0,0.0,94,0.00,,---,0.00,VWS V13.01,2013-09-10 10:10:00,
2013-09-10 05:20:00,76.6,75.2,30.00,ENE,59,0.0,0.0,95,0.00,,---,0.00,VWS V13.01,2013-09-10 10:20:00,
2013-09-10 05:30:00,76.8,75.3,30.00,ENE,59,0.0,0.0,95,0.00,,---,0.00,VWS V13.01,2013-09-10 10:30:00,
2013-09-10 05:40:00,76.8,75.6,30.03,ENE,59,0.0,0.0,96,0.00,,---,0.00,VWS V13.01,2013-09-10 10:40:00,
2013-09-10 05:50:00,76.8,75.6,30.03,ENE,59,0.0,0.0,96,0.00,,---,0.00,VWS V13.01,2013-09-10 10:50:00,
2013-09-10 06:00:00,76.8,75.6,30.03,ENE,59,0.0,0.0,96,0.00,,---,0.00,VWS V13.01,2013-09-10 11:00:00,
2013-09-10 06:10:00,76.6,75.4,30.03,ENE,59,0.0,0.0,96,0.00,,---,0.00,VWS V13.01,2013-09-10 11:10:00,
2013-09-10 06:20:00,76.6,75.4,30.03,ENE,59,0.0,0.0,96,0.00,,---,0.00,VWS V13.01,2013-09-10 11:20:00,
2013-09-10 06:30:00,76.5,75.5,30.03,ENE,59,0.0,0.0,97,0.00,,---,0.00,VWS V13.01,2013-09-10 11:30:00,
2013-09-10 06:40:00,76.5,75.5,30.03,ENE,59,0.0,0.0,97,0.00,,---,0.00,VWS V13.01,2013-09-10 11:40:00,
2013-09-10 06:50:00,76.5,75.5,30.03,ENE,59,0.0,0.0,97,0.00,,---,0.00,VWS V13.01,2013-09-10 11:50:00,
2013-09-10 07:00:00,76.5,75.5,30.03,ENE,59,0.0,0.0,97,0.00,,---,0.00,VWS V13.01,2013-09-10 12:00:00,
2013-09-10 07:10:00,76.6,75.9,30.03,ENE,59,0.0,0.0,98,0.00,,---,0.00,VWS V13.01,2013-09-10 12:10:00,
2013-09-10 07:20:00,76.6,75.9,30.03,ENE,59,0.0,0.0,98,0.00,,---,0.00,VWS V13.01,2013-09-10 12:20:00,
2013-09-10 07:30:00,77.0,76.3,30.03,ENE,59,0.0,0.0,98,0.00,,---,0.00,VWS V13.01,2013-09-10 12:30:00,
2013-09-10 07:40:00,77.7,77.2,30.03,ENE,59,0.0,0.0,98,0.00,,---,0.00,VWS V13.01,2013-09-10 12:40:00,
2013-09-10 07:49:00,78.3,77.8,30.03,ENE,59,0.0,0.0,98,0.00,,---,0.00,VWS V13.01,2013-09-10 12:49:00,
2013-09-10 08:00:00,79.0,78.5,30.06,ENE,59,0.0,0.0,98,0.00,,---,0.00,VWS V13.01,2013-09-10 13:00:00,
2013-09-10 08:10:00,79.7,79.0,30.06,ENE,59,0.0,0.0,98,0.00,,---,0.00,VWS V13.01,2013-09-10 13:10:00,
2013-09-10 08:20:00,80.4,79.2,30.06,ENE,59,0.0,0.0,96,0.00,,---,0.00,VWS V13.01,2013-09-10 13:20:00,
2013-09-10 08:29:00,80.6,77.5,30.06,ENE,59,0.0,0.0,90,0.00,,---,0.00,VWS V13.01,2013-09-10 13:29:00,
2013-09-10 08:40:00,80.8,76.9,30.06,ENE,59,0.0,0.0,88,0.00,,---,0.00,VWS V13.01,2013-09-10 13:40:00,
2013-09-10 08:50:00,81.1,75.3,30.06,ENE,59,0.0,0.0,82,0.00,,---,0.00,VWS V13.01,2013-09-10 13:50:00,
2013-09-10 09:00:00,81.9,75.1,30.06,ENE,59,0.0,0.0,80,0.00,,---,0.00,VWS V13.01,2013-09-10 14:00:00,
2013-09-10 09:10:00,81.5,73.2,30.06,ENE,59,0.0,0.0,76,0.00,,---,0.00,VWS V13.01,2013-09-10 14:10:00,
2013-09-10 09:20:00,82.0,73.4,30.06,ENE,59,0.0,0.0,75,0.00,,---,0.00,VWS V13.01,2013-09-10 14:20:00,
2013-09-10 09:30:00,83.5,73.5,30.06,ENE,59,0.0,0.0,72,0.00,,---,0.00,VWS V13.01,2013-09-10 14:30:00,
2013-09-10 09:40:00,83.7,71.3,30.06,ENE,59,0.0,0.0,66,0.00,,---,0.00,VWS V13.01,2013-09-10 14:40:00,
2013-09-10 09:50:00,83.1,71.5,30.06,ENE,59,0.0,0.0,68,0.00,,---,0.00,VWS V13.01,2013-09-10 14:50:00,
2013-09-10 10:00:00,83.7,72.3,30.06,ENE,59,0.0,0.0,69,0.00,,---,0.00,VWS V13.01,2013-09-10 15:00:00,
2013-09-10 10:10:00,84.7,71.9,30.06,ENE,59,0.0,0.0,66,0.00,,---,0.00,VWS V13.01,2013-09-10 15:10:00,
2013-09-10 10:20:00,85.3,71.7,30.06,ENE,59,0.0,0.0,64,0.00,,---,0.00,VWS V13.01,2013-09-10 15:20:00,
2013-09-10 10:30:00,85.5,71.5,30.06,ENE,59,0.0,0.0,63,0.00,,---,0.00,VWS V13.01,2013-09-10 15:30:00,
2013-09-10 10:40:00,86.2,72.6,30.06,ENE,59,0.0,0.0,64,0.00,,---,0.00,VWS V13.01,2013-09-10 15:40:00,
2013-09-10 11:00:00,86.2,72.2,30.09,ENE,59,0.0,0.0,63,0.00,,---,0.00,VWS V13.01,2013-09-10 16:00:00,
2013-09-10 11:10:00,86.5,72.6,30.09,ENE,59,0.0,0.0,63,0.00,,---,0.00,VWS V13.01,2013-09-10 16:10:00,
2013-09-10 11:20:00,86.5,72.2,30.09,ENE,59,0.0,0.0,62,0.00,,---,0.00,VWS V13.01,2013-09-10 16:20:00,
2013-09-10 11:30:00,86.4,72.0,30.09,ENE,59,0.0,0.0,62,0.00,,---,0.00,VWS V13.01,2013-09-10 16:30:00,
2013-09-10 11:40:00,86.5,71.8,30.09,ENE,59,0.0,0.0,62,0.00,,---,0.00,VWS V13.01,2013-09-10 16:40:00,
2013-09-10 11:50:00,87.4,72.2,30.09,ENE,59,0.0,0.0,61,0.00,,---,0.00,VWS V13.01,2013-09-10 16:50:00,
2013-09-10 12:00:00,87.3,71.7,30.09,ENE,59,0.0,0.0,60,0.00,,---,0.00,VWS V13.01,2013-09-10 17:00:00,
2013-09-10 12:10:00,87.6,72.0,30.09,ENE,59,0.0,0.0,60,0.00,,---,0.00,VWS V13.01,2013-09-10 17:10:00,
2013-09-10 12:20:00,88.2,72.1,30.09,ENE,59,0.0,0.0,59,0.00,,---,0.00,VWS V13.01,2013-09-10 17:20:00,
2013-09-10 12:30:00,88.2,71.7,30.06,ESE,121,11.0,11.0,58,0.00,,---,0.00,VWS V13.01,2013-09-10 17:30:00,
2013-09-10 12:40:00,88.7,72.2,30.09,ENE,70,8.1,10.5,58,0.00,,---,0.00,VWS V13.01,2013-09-10 17:40:00,
2013-09-10 12:50:00,88.2,70.9,30.06,East,83,7.6,15.4,57,0.00,,---,0.00,VWS V13.01,2013-09-10 17:50:00,
2013-09-10 13:00:00,87.6,71.2,30.06,ESE,109,10.5,11.0,58,0.00,,---,0.00,VWS V13.01,2013-09-10 18:00:00,
2013-09-10 13:10:00,88.2,71.3,30.06,NNE,21,3.6,11.0,58,0.00,,---,0.00,VWS V13.01,2013-09-10 18:10:00,
2013-09-10 13:20:00,88.3,71.1,30.06,East,80,5.4,10.1,57,0.00,,---,0.00,VWS V13.01,2013-09-10 18:20:00,
2013-09-10 13:30:00,88.7,71.0,30.06,East,87,8.7,13.2,56,0.00,,---,0.00,VWS V13.01,2013-09-10 18:30:00,
2013-09-10 13:40:00,89.6,69.7,30.06,East,85,3.1,14.5,52,0.00,,---,0.00,VWS V13.01,2013-09-10 18:40:00,
2013-09-10 13:50:00,89.8,69.8,30.06,SE,135,10.5,15.4,52,0.00,,---,0.00,VWS V13.01,2013-09-10 18:50:00,
2013-09-10 14:00:00,90.1,69.7,30.06,East,90,8.3,13.2,51,0.00,,---,0.00,VWS V13.01,2013-09-10 19:00:00,
2013-09-10 14:10:00,90.3,69.9,30.06,SE,142,7.6,17.0,51,0.00,,---,0.00,VWS V13.01,2013-09-10 19:10:00,
2013-09-10 14:20:00,90.5,70.0,30.06,SE,127,12.3,12.8,51,0.00,,---,0.00,VWS V13.01,2013-09-10 19:20:00,
2013-09-10 14:30:00,90.5,70.5,30.06,ENE,65,8.3,15.4,52,0.00,,---,0.00,VWS V13.01,2013-09-10 19:30:00,
2013-09-10 14:40:00,89.8,70.3,30.03,ENE,75,4.0,13.2,53,0.00,,---,0.00,VWS V13.01,2013-09-10 19:40:00,
2013-09-10 14:50:00,90.1,70.6,30.03,ESE,109,5.8,10.1,53,0.00,,---,0.00,VWS V13.01,2013-09-10 19:50:00,
2013-09-10 15:00:00,90.1,70.2,30.03,East,84,9.6,12.8,52,0.00,,---,0.00,VWS V13.01,2013-09-10 20:00:00,
2013-09-10 15:10:00,90.1,70.2,30.03,ESE,104,7.6,8.1,52,0.00,,---,0.00,VWS V13.01,2013-09-10 20:10:00,
2013-09-10 15:19:00,90.1,70.6,30.03,ESE,116,8.1,11.9,53,0.00,,---,0.00,VWS V13.01,2013-09-10 20:19:00,
2013-09-10 15:30:00,89.6,70.1,30.03,East,81,5.4,13.2,53,0.00,,---,0.00,VWS V13.01,2013-09-10 20:30:00,
2013-09-10 15:40:00,89.2,70.2,30.03,East,94,8.1,11.0,54,0.00,,---,0.00,VWS V13.01,2013-09-10 20:40:00,
2013-09-10 15:49:00,89.8,70.7,30.03,ENE,59,3.1,6.3,54,0.00,,---,0.00,VWS V13.01,2013-09-10 20:49:00,
2013-09-10 16:00:00,90.1,70.6,30.03,ESE,106,8.7,10.1,53,0.00,,---,0.00,VWS V13.01,2013-09-10 21:00:00,
2013-09-10 16:10:00,89.4,70.4,30.03,ESE,109,10.5,13.2,54,0.00,,---,0.00,VWS V13.01,2013-09-10 21:10:00,
2013-09-10 16:20:00,87.3,70.9,30.03,NNE,29,6.7,12.8,58,0.00,,---,0.00,VWS V13.01,2013-09-10 21:20:00,
2013-09-10 16:30:00,87.1,70.7,30.00,ESE,106,6.3,9.2,58,0.00,,---,0.00,VWS V13.01,2013-09-10 21:30:00,
2013-09-10 16:40:00,88.0,71.2,30.00,East,99,5.4,8.3,58,0.00,,---,0.00,VWS V13.01,2013-09-10 21:40:00,
2013-09-10 16:50:00,88.3,70.7,30.00,ESE,102,6.3,9.6,56,0.00,,---,0.00,VWS V13.01,2013-09-10 21:50:00,
2013-09-10 17:00:00,89.1,70.1,30.00,ESE,119,3.6,12.8,54,0.00,,---,0.00,VWS V13.01,2013-09-10 22:00:00,
2013-09-10 17:10:00,89.8,70.7,30.00,ESE,113,7.2,12.8,54,0.00,,---,0.00,VWS V13.01,2013-09-10 22:10:00,
2013-09-10 17:20:00,89.6,70.1,30.00,ENE,78,6.3,15.0,53,0.00,,---,0.00,VWS V13.01,2013-09-10 22:20:00,
2013-09-10 17:30:00,89.2,70.2,30.00,East,101,8.1,12.3,54,0.00,,---,0.00,VWS V13.01,2013-09-10 22:30:00,
2013-09-10 17:40:00,89.2,70.7,30.00,SSE,148,8.7,10.5,54,0.00,,---,0.00,VWS V13.01,2013-09-10 22:40:00,
2013-09-10 17:50:00,89.1,70.9,30.00,ENE,71,8.1,9.6,55,0.00,,---,0.00,VWS V13.01,2013-09-10 22:50:00,
2013-09-10 18:00:00,88.5,71.2,30.00,ESE,120,5.4,8.3,57,0.00,,---,0.00,VWS V13.01,2013-09-10 23:00:00,
2013-09-10 18:10:00,88.3,71.5,30.00,ESE,123,5.4,13.2,58,0.00,,---,0.00,VWS V13.01,2013-09-10 23:10:00,
2013-09-10 18:20:00,88.0,71.2,30.00,SE,144,3.6,10.5,58,0.00,,---,0.00,VWS V13.01,2013-09-10 23:20:00,
2013-09-10 18:30:00,87.6,71.2,30.00,SSE,164,8.7,8.7,58,0.00,,---,0.00,VWS V13.01,2013-09-10 23:30:00,
2013-09-10 18:40:00,87.1,70.7,30.00,SE,142,7.6,11.0,58,0.00,,---,0.00,VWS V13.01,2013-09-10 23:40:00,
2013-09-10 18:50:00,86.7,70.8,30.00,East,81,4.0,8.7,59,0.00,,---,0.00,VWS V13.01,2013-09-10 23:50:00,
2013-09-10 19:00:00,86.5,70.2,30.03,ESE,109,8.3,10.1,58,0.00,,---,0.00,VWS V13.01,2013-09-11 00:00:00,
2013-09-10 19:10:00,86.2,70.3,30.00,SSE,156,4.9,8.3,59,0.00,,---,0.00,VWS V13.01,2013-09-11 00:10:00,
2013-09-10 19:20:00,85.8,70.3,30.00,ESE,123,5.4,7.6,60,0.00,,---,0.00,VWS V13.01,2013-09-11 00:20:00,
2013-09-10 19:30:00,85.5,70.0,30.03,ESE,112,5.8,11.0,60,0.00,,---,0.00,VWS V13.01,2013-09-11 00:30:00,
2013-09-10 19:40:00,85.3,70.6,30.03,ESE,119,4.9,6.7,62,0.00,,---,0.00,VWS V13.01,2013-09-11 00:40:00,
2013-09-10 19:50:00,84.7,70.5,30.03,East,83,4.9,8.1,62,0.00,,---,0.00,VWS V13.01,2013-09-11 00:50:00,
2013-09-10 20:00:00,84.4,70.5,30.03,ESE,121,5.8,8.7,63,0.00,,---,0.00,VWS V13.01,2013-09-11 01:00:00,
2013-09-10 20:10:00,84.0,70.9,30.03,ESE,111,8.7,8.7,65,0.00,,---,0.00,VWS V13.01,2013-09-11 01:10:00,
2013-09-10 20:20:00,83.8,70.7,30.03,South,172,4.5,6.3,65,0.00,,---,0.00,VWS V13.01,2013-09-11 01:20:00,
2013-09-10 20:30:00,83.7,71.3,30.03,East,88,0.0,6.3,66,0.00,,---,0.00,VWS V13.01,2013-09-11 01:30:00,
2013-09-10 20:40:00,83.5,71.1,30.03,ESE,123,4.0,7.6,66,0.00,,---,0.00,VWS V13.01,2013-09-11 01:40:00,
2013-09-10 20:50:00,83.3,71.3,30.03,SE,140,5.8,8.1,67,0.00,,---,0.00,VWS V13.01,2013-09-11 01:50:00,
2013-09-10 21:00:00,83.1,71.5,30.03,East,89,3.6,6.3,68,0.00,,---,0.00,VWS V13.01,2013-09-11 02:00:00,
2013-09-10 21:10:00,82.9,71.3,30.03,ESE,103,4.9,6.3,68,0.00,,---,0.00,VWS V13.01,2013-09-11 02:10:00,
2013-09-10 21:20:00,82.8,71.5,30.03,ESE,116,3.1,6.3,69,0.00,,---,0.00,VWS V13.01,2013-09-11 02:20:00,
2013-09-10 21:30:00,82.8,71.5,30.06,East,100,3.6,5.8,69,0.00,,---,0.00,VWS V13.01,2013-09-11 02:30:00,
2013-09-10 21:40:00,82.6,71.3,30.06,East,97,3.1,5.4,69,0.00,,---,0.00,VWS V13.01,2013-09-11 02:40:00,
2013-09-10 21:50:00,82.6,71.3,30.06,ESE,113,2.7,6.3,69,0.00,,---,0.00,VWS V13.01,2013-09-11 02:50:00,
2013-09-10 22:00:00,82.4,71.1,30.06,SE,135,0.0,2.7,69,0.00,,---,0.00,VWS V13.01,2013-09-11 03:00:00,
2013-09-10 22:10:00,82.2,71.3,30.06,ESE,102,0.0,0.0,70,0.00,,---,0.00,VWS V13.01,2013-09-11 03:10:00,
2013-09-10 22:20:00,82.2,71.6,30.06,SE,142,0.0,3.1,70,0.00,,---,0.00,VWS V13.01,2013-09-11 03:20:00,
2013-09-10 22:30:00,82.0,71.5,30.06,ENE,74,0.0,4.0,70,0.00,,---,0.00,VWS V13.01,2013-09-11 03:30:00,
2013-09-10 22:40:00,81.9,71.6,30.06,SE,125,3.1,3.1,71,0.00,,---,0.00,VWS V13.01,2013-09-11 03:40:00,
2013-09-10 22:50:00,82.0,71.8,30.06,ENE,64,0.0,4.0,71,0.00,,---,0.00,VWS V13.01,2013-09-11 03:50:00,
2013-09-10 23:00:00,81.9,71.6,30.06,ENE,64,0.0,0.0,71,0.00,,---,0.00,VWS V13.01,2013-09-11 04:00:00,
2013-09-10 23:10:00,81.3,71.4,30.06,ENE,60,0.0,3.1,72,0.00,,---,0.00,VWS V13.01,2013-09-11 04:10:00,
2013-09-10 23:20:00,81.0,72.1,30.06,East,101,4.0,4.0,74,0.00,,---,0.00,VWS V13.01,2013-09-11 04:20:00,
2013-09-10 23:30:00,80.8,72.5,30.06,ENE,78,3.6,5.8,76,0.00,,---,0.00,VWS V13.01,2013-09-11 04:30:00,
2013-09-10 23:40:00,80.6,73.0,30.06,ENE,75,3.1,5.4,78,0.00,,---,0.00,VWS V13.01,2013-09-11 04:40:00,
2013-09-10 23:50:00,80.2,72.9,30.06,ENE,67,4.9,4.9,78,0.00,,---,0.00,VWS V13.01,2013-09-11 04:50:00,